Surface/Precipitation History
02/08/2018 18:02  to  2/9/2018 18:02
Change End Date:
Date/Time
(MDT)
Sf
Temp Chem Water Layer Surface Precipitation
Sfc Pvt Sub Frz Factor Pct Dpth DpthThk IcePct Cond Salin FI Type Intens Accum Rate
02/09/2018 17:55 Ice Warning 19.2F - 19F 32F 5 0% - - 100% 0 mhos 58 - Yes - - -
02/09/2018 17:53 Ice Warning 19.2F - 19F 32F 5 0% - - 100% 0 mhos 58 - None None - -
02/09/2018 17:45 Ice Warning 19.2F - 19F 32F 5 0% - - 100% 0 mhos 55 - Yes - - -
02/09/2018 17:38 Ice Warning 19.2F - 19F 32F 5 0% - - 100% 0 mhos 52 - Yes - - -
02/09/2018 17:35 Ice Warning 19.4F - 19F 32F 5 0% - - 100% 0 mhos 51 - Yes - - -
02/09/2018 17:25 Ice Warning 19.8F - 20F 32F 5 0% - - 100% 0 mhos 46 - Yes - - -
02/09/2018 17:23 Ice Warning 19.8F - 20F 32F 5 0% - - 100% 0 mhos 45 - Yes - - -
02/09/2018 17:15 Ice Warning 19.9F - 20F 32F 5 0% - - 100% 0 mhos 42 - Yes - - -
02/09/2018 17:08 Ice Warning 20.1F - 20F 32F 5 0% - - 100% 0 mhos 39 - Yes - - -
02/09/2018 17:05 Ice Warning 20.1F - 20F 32F 5 0% - - 100% 0 mhos 38 - Yes - - -
02/09/2018 16:55 Ice Warning 20.3F - 20F 32F 5 0% - - 100% 0 mhos 34 - Yes - - -
02/09/2018 16:53 Ice Warning 20.3F - 20F 32F 5 0% - - 100% 0 mhos 33 - Yes - - -
02/09/2018 16:45 Ice Warning 20.7F - 21F 32F 5 0% - - 100% 0 mhos 30 - Yes - - -
02/09/2018 16:38 Ice Warning 20.8F - 21F 32F 5 0% - - 100% 0 mhos 28 - Yes - - -
02/09/2018 16:35 Ice Warning 21.4F - 21F 32F 5 0% - - 100% 0 mhos 26 - None None - -
Date/Time
(MDT)
Sf
Temp Chem Water Layer Surface Precipitation
Sfc Pvt Sub Frz Factor Pct Dpth DpthThk IcePct Cond Salin FI Type Intens Accum Rate
02/09/2018 16:25 Ice Warning 21.4F - 21F 32F 5 0% - - 100% 0 mhos 23 - Yes - - -
02/09/2018 16:23 Ice Warning 21.4F - 21F 32F 5 0% - - 100% 0 mhos 21 - None None - -
02/09/2018 16:15 Ice Warning 21.4F - 21F 32F 5 0% - - 100% 0 mhos 18 - Yes - - -
02/09/2018 16:08 Ice Warning 21.9F - 22F 32F 5 0% - - 100% 0 mhos 13 - Yes - - -
02/09/2018 16:05 Ice Warning 21.9F - 22F 32F 5 0% - - 100% 0 mhos 9 - Yes - - -
02/09/2018 15:55 Ice Warning 22.5F - 22F 32F 5 0% - - 100% 0 mhos 5 - Yes - - -
02/09/2018 15:53 Ice Warning 22.5F - 22F 32F 5 0% - - 100% 0 mhos 5 - Yes - - -
02/09/2018 15:45 Ice Warning 22.8F - 23F 32F 5 0% - - 100% 0 mhos 4 - Yes - - -
02/09/2018 15:38 Ice Warning 22.8F - 23F 32F 5 0% - - 100% 0 mhos 3 - None None - -
02/09/2018 15:35 Ice Warning 22.8F - 23F 32F 5 0% - - 100% 0 mhos 3 - Yes - - -
02/09/2018 15:25 Ice Warning 23.0F - 23F 32F 5 0% - - 100% 0 mhos 3 - Yes - - -
02/09/2018 15:23 Ice Warning 23.0F - 23F 32F 5 0% - - 100% 0 mhos 3 - Yes - - -
02/09/2018 15:15 Ice Warning 22.8F - 23F 32F 5 0% - - 100% 0 mhos 3 - Yes - - -
02/09/2018 15:08 Ice Warning 22.3F - 22F 32F 5 0% - - 100% 0 mhos 2 - Yes - - -
02/09/2018 15:05 Ice Warning 22.5F - 22F 32F 5 0% - - 100% 0 mhos 2 - Yes - - -
Date/Time
(MDT)
Sf
Temp Chem Water Layer Surface Precipitation
Sfc Pvt Sub Frz Factor Pct Dpth DpthThk IcePct Cond Salin FI Type Intens Accum Rate
02/09/2018 14:55 Ice Warning 22.3F - 22F 32F 5 0% - - 100% 0 mhos 2 - Yes - - -
02/09/2018 14:53 Ice Warning 22.3F - 22F 32F 5 0% - - 100% 0 mhos 2 - Yes - - -
02/09/2018 14:45 Ice Warning 22.5F - 22F 32F 5 0% - - 100% 0 mhos 2 - Yes - - -
02/09/2018 14:38 Ice Warning 22.5F - 22F 32F 5 0% - - 100% 0 mhos 2 - Yes - - -
02/09/2018 14:35 Ice Warning 22.5F - 22F 32F 5 0% - - 100% 0 mhos 2 - Yes - - -
02/09/2018 14:25 Ice Warning 22.5F - 22F 32F 5 0% - - 100% 0 mhos 2 - Yes - - -
02/09/2018 14:23 Ice Warning 22.5F - 22F 32F 5 0% - - 100% 0 mhos 2 - Yes - - -
02/09/2018 14:14 Ice Warning 22.5F - 22F 32F 5 0% - - 100% 0 mhos 2 - Yes - - -
02/09/2018 14:08 Ice Warning 22.5F - 22F 32F 5 0% - - 100% 0 mhos 2 - None None - -
02/09/2018 14:04 Ice Warning 22.5F - 22F 32F 5 0% - - 100% 0 mhos 2 - Yes - - -
02/09/2018 13:54 Ice Warning 22.5F - 22F 32F 5 0% - - 100% 0 mhos 2 - Yes - - -
02/09/2018 13:53 Ice Warning 22.5F - 22F 32F 5 0% - - 100% 0 mhos 2 - Yes - - -
02/09/2018 13:44 Ice Warning 22.6F - 23F 32F 5 0% - - 100% 0 mhos 2 - Yes - - -
02/09/2018 13:38 Ice Warning 22.8F - 23F 32F 5 0% - - 100% 0 mhos 2 - Yes - - -
02/09/2018 13:34 Ice Warning 22.8F - 23F 32F 5 0% - - 100% 0 mhos 2 - Yes - - -
Date/Time
(MDT)
Sf
Temp Chem Water Layer Surface Precipitation
Sfc Pvt Sub Frz Factor Pct Dpth DpthThk IcePct Cond Salin FI Type Intens Accum Rate
02/09/2018 13:24 Ice Warning 22.8F - 23F 32F 5 0% - - 100% 0 mhos 2 - None None - -
02/09/2018 13:23 Ice Warning 22.6F - 23F 32F 5 0% - - 100% 0 mhos 2 - None None - -
02/09/2018 13:14 Ice Warning 22.5F - 22F 32F 5 0% - - 100% 0 mhos 2 - None None - -
02/09/2018 13:08 Ice Warning 22.5F - 22F 32F 5 0% - - 100% 0 mhos 2 - Yes - - -
02/09/2018 13:04 Ice Warning 22.5F - 22F 32F 5 0% - - 100% 0 mhos 2 - None None - -
02/09/2018 12:54 Ice Warning 22.1F - 22F 32F 5 0% - - 100% 0 mhos 2 - Yes - - -
02/09/2018 12:53 Ice Warning 22.1F - 22F 32F 5 0% - - 100% 0 mhos 2 - Yes - - -
02/09/2018 12:44 Ice Warning 21.9F - 22F 32F 5 0% - - 100% 0 mhos 2 - Yes - - -
02/09/2018 12:38 Ice Warning 21.9F - 22F 32F 5 0% - - 100% 0 mhos 2 - Yes - - -
02/09/2018 12:34 Ice Warning 21.7F - 22F 32F 5 0% - - 100% 0 mhos 2 - Yes - - -
02/09/2018 12:24 Ice Warning 21.6F - 22F 32F 5 0% - - 100% 0 mhos 2 - Yes - - -
02/09/2018 12:23 Ice Warning 21.6F - 22F 32F 5 0% - - 100% 0 mhos 2 - Yes - - -
02/09/2018 12:14 Ice Warning 21.6F - 22F 32F 5 0% - - 100% 0 mhos 2 - Yes - - -
02/09/2018 12:08 Ice Warning 21.9F - 22F 32F 5 0% - - 100% 0 mhos 2 - Yes - - -
02/09/2018 12:04 Ice Warning 22.1F - 22F 32F 5 0% - - 100% 0 mhos 2 - Yes - - -
Date/Time
(MDT)
Sf
Temp Chem Water Layer Surface Precipitation
Sfc Pvt Sub Frz Factor Pct Dpth DpthThk IcePct Cond Salin FI Type Intens Accum Rate
02/09/2018 11:54 Ice Warning 21.9F - 22F 32F 5 0% - - 100% 0 mhos 2 - Yes - - -
02/09/2018 11:53 Ice Warning 21.9F - 22F 32F 5 0% - - 100% 0 mhos 2 - Yes - - -
02/09/2018 11:44 Ice Warning 21.9F - 22F 32F 5 0% - - 100% 0 mhos 2 - Yes - - -
02/09/2018 11:38 Ice Warning 21.9F - 22F 32F 5 0% - - 100% 0 mhos 2 - None None - -
02/09/2018 11:34 Ice Warning 21.7F - 22F 32F 5 0% - - 100% 0 mhos 2 - None None - -
02/09/2018 11:24 Ice Warning 21.4F - 22F 32F 5 0% - - 100% 0 mhos 2 - None None - -
02/09/2018 11:23 Ice Warning 21.4F - 21F 32F 5 0% - - 100% 0 mhos 2 - None None - -
02/09/2018 11:14 Ice Warning 21.4F - 21F 32F 5 0% - - 100% 0 mhos 2 - Yes - - -
02/09/2018 11:08 Ice Warning 21.2F - 21F 32F 5 0% - - 100% 0 mhos 2 - Yes - - -
02/09/2018 11:04 Ice Warning 21.0F - 21F 32F 5 0% - - 100% 0 mhos 2 - None None - -
02/09/2018 10:54 Ice Warning 20.7F - 21F 32F 5 0% - - 100% 0 mhos 2 - Yes - - -
02/09/2018 10:53 Ice Warning 20.7F - 21F 32F 5 0% - - 100% 0 mhos 2 - None None - -
02/09/2018 10:43 Ice Warning 20.3F - 20F 32F 5 0% - - 100% 0 mhos 2 - Yes - - -
02/09/2018 10:38 Ice Warning 20.1F - 20F 32F 5 0% - - 100% 0 mhos 2 - None None - -
02/09/2018 10:33 Ice Warning 20.1F - 20F 32F 5 0% - - 100% 0 mhos 2 - Yes - - -
Date/Time
(MDT)
Sf
Temp Chem Water Layer Surface Precipitation
Sfc Pvt Sub Frz Factor Pct Dpth DpthThk IcePct Cond Salin FI Type Intens Accum Rate
02/09/2018 10:24 Ice Warning 19.6F - 20F 32F 5 0% - - 100% 0 mhos 2 - Yes - - -
02/09/2018 10:23 Ice Warning 19.6F - 20F 32F 5 0% - - 100% 0 mhos 2 - Yes - - -
02/09/2018 10:13 Ice Warning 19.6F - 20F 32F 5 0% - - 100% 0 mhos 2 - Yes - - -
02/09/2018 10:08 Ice Warning 19.4F - 19F 32F 5 0% - - 100% 0 mhos 2 - None None - -
02/09/2018 10:03 Ice Warning 19.2F - 19F 32F 5 0% - - 100% 0 mhos 2 - Yes - - -
02/09/2018 09:53 Ice Warning 18.9F - 19F 32F 5 0% - - 100% 0 mhos 2 - Yes - - -
02/09/2018 09:53 Ice Warning 18.9F - 19F 32F 5 0% - - 100% 0 mhos 2 - Yes - - -
02/09/2018 09:43 Ice Warning 18.3F - 18F 32F 5 0% - - 100% 0 mhos 2 - Yes - - -
02/09/2018 09:38 Ice Warning 18.1F - 18F 32F 5 0% - - 100% 0 mhos 2 - Yes - - -
02/09/2018 09:33 Ice Warning 18.3F - 18F 32F 5 0% - - 100% 0 mhos 2 - Yes - - -
02/09/2018 09:23 Ice Warning 18.5F - 19F 32F 5 0% - - 100% 0 mhos 2 - Yes - - -
02/09/2018 09:23 Ice Warning 18.5F - 19F 32F 5 0% - - 100% 0 mhos 2 - Yes - - -
02/09/2018 09:13 Ice Warning 18.3F - 18F 32F 5 0% - - 100% 0 mhos 2 - Yes - - -
02/09/2018 09:08 Ice Warning 18.7F - 19F 32F 5 0% - - 100% 0 mhos 2 - Yes - - -
02/09/2018 09:03 Ice Warning 18.3F - 19F 32F 5 0% - - 100% 0 mhos 2 - Yes - - -
Date/Time
(MDT)
Sf
Temp Chem Water Layer Surface Precipitation
Sfc Pvt Sub Frz Factor Pct Dpth DpthThk IcePct Cond Salin FI Type Intens Accum Rate
02/09/2018 08:53 Ice Warning 17.6F - 18F 32F 5 0% - - 100% 0 mhos 2 - Yes - - -
02/09/2018 08:53 Ice Warning 17.6F - 18F 32F 5 0% - - 100% 0 mhos 2 - Yes - - -
02/09/2018 08:43 Ice Warning 17.1F - 17F 32F 5 0% - - 100% 0 mhos 1 - Yes - - -
02/09/2018 08:38 Dry 16.9F - 17F - - - - - - 0 mhos 1 - Yes - - -
02/09/2018 08:33 Dry 16.7F - 17F - - - - - - 0 mhos 1 - Yes - - -
02/09/2018 08:23 Dry 16.7F - 17F - - - - - - 0 mhos 1 - Yes - - -
02/09/2018 08:23 Dry 16.7F - 17F - - - - - - 0 mhos 1 - Yes - - -
02/09/2018 08:13 Dry 16.7F - 17F - - - - - - 0 mhos 1 - Yes - - -
02/09/2018 08:08 Dry 16.7F - 17F - - - - - - 0 mhos 1 - Yes - - -
02/09/2018 08:03 Dry 16.7F - 17F - - - - - - 0 mhos 1 - Yes - - -
02/09/2018 07:53 Dry 16.5F - 17F - - - - - - 0 mhos 1 - Yes - - -
02/09/2018 07:53 Dry 16.5F - 17F - - - - - - 0 mhos 1 - Yes - - -
02/09/2018 07:43 Dry 16.2F - 16F - - - - - - 0 mhos 1 - Yes - - -
02/09/2018 07:38 Dry 15.8F - 16F - - - - - - 0 mhos 1 - Yes - - -
02/09/2018 07:33 Dry 15.6F - 16F - - - - - - 0 mhos 1 - Yes - - -
Date/Time
(MDT)
Sf
Temp Chem Water Layer Surface Precipitation
Sfc Pvt Sub Frz Factor Pct Dpth DpthThk IcePct Cond Salin FI Type Intens Accum Rate
02/09/2018 07:23 Dry 15.3F - 15F - - - - - - 0 mhos 1 - Yes - - -
02/09/2018 07:23 Dry 15.3F - 15F - - - - - - 0 mhos 1 - Yes - - -
02/09/2018 07:13 Dry 15.4F - 16F - - - - - - 0 mhos 1 - Yes - - -
02/09/2018 07:08 Dry 15.8F - 16F - - - - - - 0 mhos 1 - None None - -
02/09/2018 07:02 Dry 16.0F - 16F - - - - - - 0 mhos 1 - None None - -
02/09/2018 06:53 Dry 16.7F - 17F - - - - - - 0 mhos 1 - None None - -
02/09/2018 06:52 Dry 16.7F - 17F - - - - - - 0 mhos 1 - None None - -
02/09/2018 06:42 Dry 17.4F - 17F - - - - - - 0 mhos 1 - Yes - - -
02/09/2018 06:39 Dry 17.6F - 18F - - - - - - 0 mhos 1 - None None - -
02/09/2018 06:32 Dry 18.1F - 18F - - - - - - 0 mhos 1 - None None - -
02/09/2018 06:24 Ice Warning 18.9F - 19F 32F 5 0% - - 100% 0 mhos 1 - None None - -
02/09/2018 06:22 Ice Warning 18.9F - 19F 32F 5 0% - - 100% 0 mhos 1 - None None - -
02/09/2018 06:12 Ice Warning 19.9F - 20F 32F 5 0% - - 100% 0 mhos 2 - None None - -
02/09/2018 06:09 Ice Warning 20.3F - 20F 32F 5 0% - - 100% 0 mhos 2 - None None - -
02/09/2018 06:02 Ice Warning 21.4F - 21F 32F 5 0% - - 100% 0 mhos 2 - None None - -
Date/Time
(MDT)
Sf
Temp Chem Water Layer Surface Precipitation
Sfc Pvt Sub Frz Factor Pct Dpth DpthThk IcePct Cond Salin FI Type Intens Accum Rate
02/09/2018 05:54 Ice Warning 23.4F - 23F 32F 5 0% - - 100% 0 mhos 2 - None None - -
02/09/2018 05:52 Ice Warning 23.5F - 24F 32F 5 0% - - 100% 0 mhos 2 - None None - -
02/09/2018 05:42 Ice Warning 25.5F - 26F 32F 5 0% - - 100% 0 mhos 3 - None None - -
02/09/2018 05:39 Ice Warning 25.5F - 26F 32F 5 0% - - 100% 0 mhos 3 - None None - -
02/09/2018 05:32 Ice Warning 25.5F - 26F 32F 5 0% - - 100% 0 mhos 2 - None None - -
02/09/2018 05:24 Ice Warning 25.3F - 25F 32F 5 0% - - 100% 0 mhos 2 - None None - -
02/09/2018 05:22 Ice Warning 25.3F - 25F 32F 5 0% - - 100% 0 mhos 2 - None None - -
02/09/2018 05:12 Ice Warning 25.3F - 25F 32F 5 0% - - 100% 0 mhos 2 - None None - -
02/09/2018 05:09 Ice Warning 25.0F - 25F 32F 5 0% - - 100% 0 mhos 2 - None None - -
02/09/2018 05:02 Ice Warning 25.2F - 25F 32F 5 0% - - 100% 0 mhos 2 - None None - -
02/09/2018 04:53 Ice Warning 25.0F - 25F 32F 5 0% - - 100% 0 mhos 2 - None None - -
02/09/2018 04:52 Ice Warning 25.0F - 25F 32F 5 0% - - 100% 0 mhos 2 - None None - -
02/09/2018 04:42 Ice Warning 24.8F - 25F 32F 5 0% - - 100% 0 mhos 2 - Yes - - -
02/09/2018 04:39 Ice Warning 24.6F - 25F 32F 5 0% - - 100% 0 mhos 2 - None None - -
02/09/2018 04:32 Ice Warning 24.6F - 25F 32F 5 0% - - 100% 0 mhos 2 - None None - -
Date/Time
(MDT)
Sf
Temp Chem Water Layer Surface Precipitation
Sfc Pvt Sub Frz Factor Pct Dpth DpthThk IcePct Cond Salin FI Type Intens Accum Rate
02/09/2018 04:24 Ice Warning 24.4F - 24F 32F 5 0% - - 100% 0 mhos 2 - None None - -
02/09/2018 04:22 Ice Warning 24.4F - 24F 32F 5 0% - - 100% 0 mhos 2 - Yes - - -
02/09/2018 04:12 Ice Warning 24.3F - 24F 32F 5 0% - - 100% 0 mhos 2 - Yes - - -
02/09/2018 04:08 Ice Warning 24.1F - 24F 32F 5 0% - - 100% 0 mhos 2 - Yes - - -
02/09/2018 04:02 Ice Warning 23.9F - 24F 32F 5 0% - - 100% 0 mhos 2 - Yes - - -
02/09/2018 03:54 Ice Warning 23.7F - 24F 32F 5 0% - - 100% 0 mhos 2 - Yes - - -
02/09/2018 03:52 Ice Warning 23.7F - 24F 32F 5 0% - - 100% 0 mhos 2 - Yes - - -
02/09/2018 03:42 Ice Warning 23.5F - 24F 32F 5 0% - - 100% 0 mhos 2 - Yes - - -
02/09/2018 03:39 Ice Warning 23.5F - 24F 32F 5 0% - - 100% 0 mhos 2 - Yes - - -
02/09/2018 03:31 Ice Warning 23.2F - 23F 32F 5 0% - - 100% 0 mhos 2 - Yes - - -
02/09/2018 03:24 Ice Warning 23.0F - 23F 32F 5 0% - - 100% 0 mhos 2 - Yes - - -
02/09/2018 03:21 Ice Warning 22.8F - 23F 32F 5 0% - - 100% 0 mhos 2 - Yes - - -
02/09/2018 03:11 Ice Warning 22.5F - 22F 32F 5 0% - - 100% 0 mhos 2 - Yes - - -
02/09/2018 03:09 Ice Warning 22.5F - 22F 32F 5 0% - - 100% 0 mhos 2 - Yes - - -
02/09/2018 03:01 Ice Warning 22.1F - 22F 32F 5 0% - - 100% 0 mhos 2 - Yes - - -
Date/Time
(MDT)
Sf
Temp Chem Water Layer Surface Precipitation
Sfc Pvt Sub Frz Factor Pct Dpth DpthThk IcePct Cond Salin FI Type Intens Accum Rate
02/09/2018 02:54 Ice Warning 21.7F - 22F 32F 5 0% - - 100% 0 mhos 1 - Yes - - -
02/09/2018 02:51 Ice Warning 21.6F - 22F 32F 5 0% - - 100% 0 mhos 1 - Yes - - -
02/09/2018 02:41 Ice Warning 21.0F - 21F 32F 5 0% - - 100% 0 mhos 1 - Yes - - -
02/09/2018 02:38 Ice Warning 20.8F - 21F 32F 5 0% - - 100% 0 mhos 1 - Yes - - -
02/09/2018 02:31 Ice Warning 20.3F - 20F 32F 5 0% - - 100% 0 mhos 1 - Yes - - -
02/09/2018 02:24 Ice Warning 19.8F - 20F 32F 5 0% - - 100% 0 mhos 1 - Yes - - -
02/09/2018 02:21 Ice Warning 19.4F - 19F 32F 5 0% - - 100% 0 mhos 1 - Yes - - -
02/09/2018 02:11 Ice Warning 19.2F - 19F 32F 5 0% - - 100% 0 mhos 1 - None None - -
02/09/2018 02:09 Ice Warning 19.4F - 19F 32F 5 0% - - 100% 0 mhos 1 - None None - -
02/09/2018 02:01 Ice Warning 20.3F - 20F 32F 5 0% - - 100% 0 mhos 1 - Yes - - -
02/09/2018 01:54 Ice Warning 20.1F - 20F 32F 5 0% - - 100% 0 mhos 1 - Yes - - -
02/09/2018 01:51 Ice Warning 20.3F - 20F 32F 5 0% - - 100% 0 mhos 1 - Yes - - -
02/09/2018 01:41 Ice Warning 20.8F - 21F 32F 5 0% - - 100% 0 mhos 1 - Yes - - -
02/09/2018 01:39 Ice Warning 20.8F - 21F 32F 5 0% - - 100% 0 mhos 1 - Yes - - -
02/09/2018 01:31 Ice Warning 21.4F - 21F 32F 5 0% - - 100% 0 mhos 1 - Yes - - -
Date/Time
(MDT)
Sf
Temp Chem Water Layer Surface Precipitation
Sfc Pvt Sub Frz Factor Pct Dpth DpthThk IcePct Cond Salin FI Type Intens Accum Rate
02/09/2018 01:24 Ice Warning 22.3F - 22F 32F 5 0% - - 100% 0 mhos 1 - Yes - - -
02/09/2018 01:21 Ice Warning 22.1F - 22F 32F 5 0% - - 100% 0 mhos 1 - Yes - - -
02/09/2018 01:11 Ice Warning 21.9F - 22F 32F 5 0% - - 100% 0 mhos 1 - Yes - - -
02/09/2018 01:09 Ice Warning 21.9F - 22F 32F 5 0% - - 100% 0 mhos 1 - None None - -
02/09/2018 01:01 Ice Warning 21.6F - 22F 32F 5 0% - - 100% 0 mhos 1 - Yes - - -
02/09/2018 00:54 Ice Warning 21.4F - 21F 32F 5 0% - - 100% 0 mhos 1 - Yes - - -
02/09/2018 00:51 Ice Warning 21.4F - 21F 32F 5 0% - - 100% 0 mhos 1 - Yes - - -
02/09/2018 00:41 Ice Warning 21.4F - 21F 32F 5 0% - - 100% 0 mhos 1 - None None - -
02/09/2018 00:39 Ice Warning 21.4F - 21F 32F 5 0% - - 100% 0 mhos 1 - Yes - - -
02/09/2018 00:31 Ice Warning 21.2F - 21F 32F 5 0% - - 100% 0 mhos 1 - None None - -
02/09/2018 00:23 Ice Warning 21.0F - 21F 32F 5 0% - - 100% 0 mhos 1 - None None - -
02/09/2018 00:21 Ice Warning 20.8F - 21F 32F 5 0% - - 100% 0 mhos 1 - None None - -
02/09/2018 00:11 Ice Warning 20.5F - 20F 32F 5 0% - - 100% 0 mhos 1 - None None - -
02/09/2018 00:08 Ice Warning 20.5F - 20F 32F 5 0% - - 100% 0 mhos 1 - None None - -
02/09/2018 00:00 Ice Warning 20.3F - 20F 32F 5 0% - - 100% 0 mhos 1 - Yes - - -
Date/Time
(MDT)
Sf
Temp Chem Water Layer Surface Precipitation
Sfc Pvt Sub Frz Factor Pct Dpth DpthThk IcePct Cond Salin FI Type Intens Accum Rate
02/08/2018 23:54 Ice Warning 19.8F - 20F 32F 5 0% - - 100% 0 mhos 1 - None None - -
02/08/2018 23:50 Ice Warning 19.4F - 19F 32F 5 0% - - 100% 0 mhos 1 - Yes - - -
02/08/2018 23:40 Ice Warning 18.7F - 19F 32F 5 0% - - 100% 0 mhos 1 - Yes - - -
02/08/2018 23:39 Ice Warning 18.5F - 19F 32F 5 0% - - 100% 0 mhos 1 - Yes - - -
02/08/2018 23:30 Dry 18.5F - 19F - - - - - - 0 mhos 1 - None None - -
02/08/2018 23:24 Dry 18.3F - 19F - - - - - - 0 mhos 1 - Yes - - -
02/08/2018 23:20 Dry 18.3F - 18F - - - - - - 0 mhos 1 - None None - -
02/08/2018 23:10 Dry 18.3F - 18F - - - - - - 0 mhos 1 - None None - -
02/08/2018 23:08 Dry 18.3F - 18F - - - - - - 0 mhos 1 - None None - -
02/08/2018 23:00 Ice Warning 18.5F - 19F 32F 5 0% - - 100% 0 mhos 1 - Yes - - -
02/08/2018 22:54 Ice Warning 18.3F - 18F 32F 5 0% - - 100% 0 mhos 1 - None None - -
02/08/2018 22:50 Dry 18.5F - 19F - - - - - - 0 mhos 1 - None None - -
02/08/2018 22:40 Ice Warning 18.5F - 19F 32F 5 0% - - 100% 0 mhos 1 - None None - -
02/08/2018 22:39 Ice Warning 18.5F - 19F 32F 5 0% - - 100% 0 mhos 1 - None None - -
02/08/2018 22:30 Ice Warning 18.7F - 19F 32F 5 0% - - 100% 0 mhos 1 - Yes - - -
Date/Time
(MDT)
Sf
Temp Chem Water Layer Surface Precipitation
Sfc Pvt Sub Frz Factor Pct Dpth DpthThk IcePct Cond Salin FI Type Intens Accum Rate
02/08/2018 22:24 Ice Warning 18.5F - 19F 32F 5 0% - - 100% 0 mhos 1 - None None - -
02/08/2018 22:20 Ice Warning 18.9F - 19F 32F 5 0% - - 100% 0 mhos 1 - Yes - - -
02/08/2018 22:10 Ice Warning 19.0F - 19F 32F 5 0% - - 100% 0 mhos 1 - None None - -
02/08/2018 22:09 Ice Warning 19.0F - 19F 32F 5 0% - - 100% 0 mhos 1 - None None - -
02/08/2018 22:00 Ice Warning 19.0F - 19F 32F 5 0% - - 100% 0 mhos 1 - None None - -
02/08/2018 21:54 Ice Warning 19.0F - 19F 32F 5 0% - - 100% 0 mhos 1 - None None - -
02/08/2018 21:50 Ice Warning 19.2F - 19F 32F 5 0% - - 100% 0 mhos 1 - None None - -
02/08/2018 21:40 Ice Warning 19.2F - 19F 32F 5 0% - - 100% 0 mhos 1 - None None - -
02/08/2018 21:39 Ice Warning 19.2F - 19F 32F 5 0% - - 100% 0 mhos 1 - None None - -
02/08/2018 21:30 Ice Warning 19.4F - 19F 32F 5 0% - - 100% 0 mhos 1 - None None - -
02/08/2018 21:23 Ice Warning 19.6F - 20F 32F 5 0% - - 100% 0 mhos 1 - Yes - - -
02/08/2018 21:20 Ice Warning 19.8F - 20F 32F 5 0% - - 100% 0 mhos 1 - None None - -
02/08/2018 21:10 Ice Warning 20.1F - 20F 32F 5 0% - - 100% 0 mhos 1 - Yes - - -
02/08/2018 21:09 Ice Warning 20.1F - 20F 32F 5 0% - - 100% 0 mhos 1 - None None - -
02/08/2018 21:00 Ice Warning 20.3F - 20F 32F 5 0% - - 100% 0 mhos 1 - None None - -
Date/Time
(MDT)
Sf
Temp Chem Water Layer Surface Precipitation
Sfc Pvt Sub Frz Factor Pct Dpth DpthThk IcePct Cond Salin FI Type Intens Accum Rate
02/08/2018 20:54 Ice Warning 20.5F - 20F 32F 5 0% - - 100% 0 mhos 1 - None None - -
02/08/2018 20:50 Ice Warning 20.7F - 21F 32F 5 0% - - 100% 0 mhos 1 - Yes - - -
02/08/2018 20:40 Ice Warning 20.7F - 21F 32F 5 0% - - 100% 0 mhos 1 - None None - -
02/08/2018 20:39 Ice Warning 20.7F - 21F 32F 5 0% - - 100% 0 mhos 1 - None None - -
02/08/2018 20:29 Ice Warning 20.7F - 21F 32F 5 0% - - 100% 0 mhos 1 - None None - -
02/08/2018 20:24 Ice Warning 20.8F - 21F 32F 5 0% - - 100% 0 mhos 1 - None None - -
02/08/2018 20:19 Ice Warning 20.8F - 21F 32F 5 0% - - 100% 0 mhos 1 - Yes - - -
02/08/2018 20:09 Ice Warning 20.7F - 21F 32F 5 0% - - 100% 0 mhos 1 - Yes - - -
02/08/2018 20:09 Ice Warning 20.7F - 21F 32F 5 0% - - 100% 0 mhos 1 - Yes - - -
02/08/2018 19:59 Ice Warning 21.0F - 21F 32F 5 0% - - 100% 0 mhos 1 - None None - -
02/08/2018 19:54 Ice Warning 21.0F - 21F 32F 5 0% - - 100% 0 mhos 1 - Yes - - -
02/08/2018 19:49 Ice Warning 20.8F - 21F 32F 5 0% - - 100% 0 mhos 1 - Yes - - -
02/08/2018 19:39 Dry 21.4F - 21F - - - - - - 0 mhos 1 - Yes - - -
02/08/2018 19:38 Dry 21.6F - 21F - - - - - - 0 mhos 1 - None None - -
02/08/2018 19:29 Dry 21.6F - 22F - - - - - - 0 mhos 1 - None None - -
Date/Time
(MDT)
Sf
Temp Chem Water Layer Surface Precipitation
Sfc Pvt Sub Frz Factor Pct Dpth DpthThk IcePct Cond Salin FI Type Intens Accum Rate
02/08/2018 19:24 Dry 21.6F - 22F - - - - - - 0 mhos 1 - None None - -
02/08/2018 19:19 Dry 21.7F - 22F - - - - - - 0 mhos 1 - None None - -
02/08/2018 19:09 Ice Warning 21.7F - 22F 32F 5 0% - - 100% 0 mhos 1 - None None - -
02/08/2018 19:09 Ice Warning 21.7F - 22F 32F 5 0% - - 100% 0 mhos 1 - None None - -
02/08/2018 18:59 Ice Warning 22.3F - 22F 32F 5 0% - - 100% 0 mhos 1 - None None - -
02/08/2018 18:54 Ice Warning 23.0F - 23F 32F 5 0% - - 100% 0 mhos 1 - None None - -
02/08/2018 18:49 Ice Warning 23.5F - 24F 32F 5 0% - - 100% 0 mhos 1 - Yes - - -
02/08/2018 18:39 Dry 24.1F - 24F - - - - - - 0 mhos 1 - None None - -
02/08/2018 18:38 Dry 24.1F - 24F - - - - - - 0 mhos 1 - None None - -
02/08/2018 18:29 Ice Warning 24.6F - 25F 32F 5 0% - - 100% 0 mhos 1 - None None - -
02/08/2018 18:23 Dry 25.5F - 25F - - - - - - 0 mhos 1 - Yes - - -
02/08/2018 18:19 Ice Warning 25.9F - 26F 32F 5 0% - - 100% 0 mhos 1 - Yes - - -
02/08/2018 18:09 Ice Warning 26.8F - 27F 32F 5 0% - - 100% 0 mhos 1 - Yes - - -
02/08/2018 18:08 Ice Warning 26.8F - 27F 32F 5 0% - - 100% 0 mhos 1 - Yes - - -
Change End Date:

Copyright © 1998-2015 Vaisala, Inc.
All Rights Reserved
Send comments about the data to:
SCAN Web ® is a registered trademark of Vaisala, Inc.
SCAN Web Version 6.0